createdAt,value
2019-03-29T00:01:01.300Z,93.50
2019-03-29T00:03:06.919Z,93.30
2019-03-29T00:05:12.522Z,93.60
2019-03-29T00:07:19.029Z,94.10
2019-03-29T00:09:24.563Z,94.10
2019-03-29T00:11:30.096Z,94.10
2019-03-29T00:13:35.636Z,93.90
2019-03-29T00:15:41.280Z,94.20
2019-03-29T00:17:46.808Z,94.40
2019-03-29T00:19:52.333Z,94.60
2019-03-29T00:21:57.873Z,94.10
2019-03-29T00:24:07.129Z,94.20
2019-03-29T00:26:11.640Z,94.40
2019-03-29T00:28:17.171Z,94.20
2019-03-29T00:30:23.568Z,94.40
2019-03-29T00:32:29.100Z,94.50
2019-03-29T00:34:34.661Z,94.10
2019-03-29T00:36:40.195Z,94.20
2019-03-29T00:38:45.715Z,94.60
2019-03-29T00:40:52.373Z,94.60
2019-03-29T00:42:57.912Z,94.30
2019-03-29T00:45:04.896Z,94.00
2019-03-29T00:47:10.435Z,94.00
2019-03-29T00:49:15.981Z,93.90
2019-03-29T00:51:21.518Z,94.10
2019-03-29T00:53:27.051Z,94.30
2019-03-29T00:55:32.572Z,94.70
2019-03-29T00:57:38.116Z,94.80
2019-03-29T00:59:43.669Z,94.50
2019-03-29T01:01:49.187Z,94.70
2019-03-29T01:03:54.812Z,94.70
2019-03-29T01:06:00.427Z,94.80
2019-03-29T01:08:08.019Z,94.80
2019-03-29T01:10:13.365Z,94.70
2019-03-29T01:12:18.929Z,94.60
2019-03-29T01:14:24.447Z,94.30
2019-03-29T01:16:30.451Z,94.40
2019-03-29T01:18:36.010Z,94.60
2019-03-29T01:20:41.537Z,94.60
2019-03-29T01:22:47.130Z,94.70
2019-03-29T01:24:52.691Z,94.80
2019-03-29T01:26:58.217Z,94.90
2019-03-29T01:29:03.982Z,95.00
2019-03-29T01:31:10.475Z,95.10
2019-03-29T01:33:16.101Z,95.20
2019-03-29T01:35:21.752Z,94.30
2019-03-29T01:37:30.497Z,94.30
2019-03-29T01:39:36.151Z,94.40
2019-03-29T01:41:41.753Z,94.60
2019-03-29T01:43:47.425Z,94.70
2019-03-29T01:45:52.995Z,94.30
2019-03-29T01:47:58.641Z,94.10
2019-03-29T01:50:05.678Z,94.20
2019-03-29T01:52:12.255Z,93.90
2019-03-29T01:54:17.952Z,94.50
2019-03-29T01:56:23.636Z,95.10
2019-03-29T01:58:29.204Z,94.90
2019-03-29T02:00:36.268Z,94.70
2019-03-29T02:02:42.273Z,94.40
2019-03-29T02:04:47.940Z,94.70
2019-03-29T02:06:53.549Z,94.80
2019-03-29T02:08:59.299Z,94.70
2019-03-29T02:11:04.881Z,94.70
2019-03-29T02:13:10.636Z,94.80
2019-03-29T02:15:16.389Z,94.80
2019-03-29T02:17:22.042Z,94.90
2019-03-29T02:19:27.931Z,94.90
2019-03-29T02:21:33.612Z,94.90
2019-03-29T02:23:39.165Z,95.00
2019-03-29T02:25:45.020Z,95.10
2019-03-29T02:27:52.286Z,95.00
2019-03-29T02:29:58.672Z,94.90
2019-03-29T02:32:04.455Z,95.10
2019-03-29T02:34:10.077Z,94.90
2019-03-29T02:36:15.732Z,94.20
2019-03-29T02:38:23.626Z,94.50
2019-03-29T02:40:30.508Z,94.10
2019-03-29T02:42:36.077Z,94.70
2019-03-29T02:44:41.732Z,93.90
2019-03-29T02:46:47.293Z,94.00
2019-03-29T02:48:52.861Z,94.10
2019-03-29T02:50:58.546Z,94.70
2019-03-29T02:53:04.265Z,95.40
2019-03-29T02:55:09.976Z,94.90
2019-03-29T02:57:15.501Z,94.40
2019-03-29T02:59:40.404Z,94.60
2019-03-29T03:01:45.952Z,94.60
2019-03-29T03:03:51.482Z,94.70
2019-03-29T03:05:57.037Z,94.90
2019-03-29T03:08:02.584Z,95.10
2019-03-29T03:10:09.574Z,95.00
2019-03-29T03:12:15.128Z,95.10
2019-03-29T03:14:20.661Z,94.90
2019-03-29T03:16:26.184Z,94.70
2019-03-29T03:18:31.736Z,94.60
2019-03-29T03:20:37.331Z,94.80
2019-03-29T03:22:42.982Z,94.80
2019-03-29T03:24:48.550Z,94.80
2019-03-29T03:26:54.075Z,94.80
2019-03-29T03:28:59.602Z,94.80
2019-03-29T03:31:05.205Z,95.00
2019-03-29T03:33:10.724Z,95.30
2019-03-29T03:35:16.391Z,95.20
2019-03-29T03:37:21.936Z,95.20
2019-03-29T03:39:31.939Z,95.30
2019-03-29T03:41:34.618Z,95.20
2019-03-29T03:43:40.177Z,95.10
2019-03-29T03:45:45.713Z,94.90
2019-03-29T03:47:51.238Z,94.90
2019-03-29T03:50:00.635Z,95.10
2019-03-29T03:52:23.391Z,95.10
2019-03-29T03:54:29.067Z,95.10
2019-03-29T03:56:35.141Z,95.30
2019-03-29T03:58:41.613Z,95.20
2019-03-29T04:00:54.824Z,95.40
2019-03-29T04:03:01.344Z,94.90
2019-03-29T04:05:07.338Z,95.00
2019-03-29T04:07:12.857Z,95.10
2019-03-29T04:09:19.469Z,95.20
2019-03-29T04:11:25.003Z,95.30
2019-03-29T04:13:30.534Z,95.50
2019-03-29T04:15:36.072Z,94.60
2019-03-29T04:17:41.596Z,94.80
2019-03-29T04:19:47.142Z,94.30
2019-03-29T04:21:52.682Z,94.50
2019-03-29T04:23:59.274Z,94.50
2019-03-29T04:26:04.798Z,94.60
2019-03-29T04:28:10.505Z,94.50
2019-03-29T04:30:16.237Z,94.40
2019-03-29T04:32:21.765Z,94.10
2019-03-29T04:34:27.300Z,94.50
2019-03-29T04:36:32.824Z,95.20
2019-03-29T04:38:38.424Z,94.90
2019-03-29T04:40:44.033Z,94.60
2019-03-29T04:42:49.552Z,94.90
2019-03-29T04:44:55.088Z,94.70
2019-03-29T04:47:00.708Z,94.70
2019-03-29T04:49:06.796Z,94.20
2019-03-29T04:51:12.333Z,93.90
2019-03-29T04:53:17.867Z,94.30
2019-03-29T04:55:23.469Z,94.50
2019-03-29T04:57:28.991Z,94.60
2019-03-29T04:59:34.538Z,94.30
2019-03-29T05:01:59.404Z,94.90
2019-03-29T05:04:04.934Z,95.20
2019-03-29T05:06:11.016Z,95.50
2019-03-29T05:08:16.518Z,94.70
2019-03-29T05:10:22.138Z,94.90
2019-03-29T05:12:27.687Z,95.10
2019-03-29T05:14:33.233Z,95.10
2019-03-29T05:16:38.775Z,94.50
2019-03-29T05:18:44.335Z,94.60
2019-03-29T05:20:49.860Z,94.40
2019-03-29T05:22:55.404Z,94.40
2019-03-29T05:25:01.007Z,94.80
2019-03-29T05:27:06.532Z,94.70
2019-03-29T05:29:12.068Z,94.80
2019-03-29T05:31:17.638Z,94.70
2019-03-29T05:33:23.157Z,94.50
2019-03-29T05:35:28.675Z,94.20
2019-03-29T05:37:34.217Z,94.00
2019-03-29T05:39:39.737Z,94.10
2019-03-29T05:41:45.342Z,94.20
2019-03-29T05:43:50.884Z,94.10
2019-03-29T05:45:56.405Z,94.10
2019-03-29T05:48:02.014Z,94.00
2019-03-29T05:50:08.110Z,94.00
2019-03-29T05:52:13.636Z,93.50
2019-03-29T05:54:19.188Z,93.80
2019-03-29T05:56:24.739Z,94.00
2019-03-29T05:58:30.273Z,93.70
2019-03-29T06:00:35.807Z,93.80
2019-03-29T06:02:41.335Z,94.20
2019-03-29T06:04:46.870Z,93.50
2019-03-29T06:06:52.400Z,93.10
2019-03-29T06:08:57.932Z,93.00
2019-03-29T06:11:03.902Z,93.00
2019-03-29T06:13:09.495Z,93.50
2019-03-29T06:15:15.274Z,93.90
2019-03-29T06:17:20.872Z,94.00
2019-03-29T06:19:26.398Z,93.50
2019-03-29T06:21:31.934Z,93.20
2019-03-29T06:23:37.539Z,93.50
2019-03-29T06:25:43.081Z,93.40
2019-03-29T06:27:48.621Z,93.80
2019-03-29T06:29:54.148Z,93.60
2019-03-29T06:31:59.694Z,93.40
2019-03-29T06:34:05.302Z,92.50
2019-03-29T06:36:13.436Z,92.60
2019-03-29T06:38:20.392Z,93.00
2019-03-29T06:40:27.076Z,92.70
2019-03-29T06:42:32.606Z,93.20
2019-03-29T06:44:38.147Z,92.80
2019-03-29T06:46:43.702Z,92.70
2019-03-29T06:48:49.220Z,93.00
2019-03-29T06:50:54.756Z,92.70
2019-03-29T06:53:00.374Z,92.90
2019-03-29T06:55:06.442Z,93.10
2019-03-29T06:57:11.984Z,93.10
2019-03-29T06:59:17.579Z,92.60
2019-03-29T07:01:42.445Z,92.80
2019-03-29T07:03:47.960Z,92.70
2019-03-29T07:05:53.568Z,93.00
2019-03-29T07:07:59.089Z,92.80
2019-03-29T07:10:06.249Z,92.90
2019-03-29T07:12:11.878Z,92.80
2019-03-29T07:14:17.400Z,92.80
2019-03-29T07:16:22.996Z,93.10
2019-03-29T07:18:28.528Z,93.30
2019-03-29T07:20:34.059Z,93.20
2019-03-29T07:22:39.591Z,93.20
2019-03-29T07:24:45.128Z,93.30
2019-03-29T07:26:51.633Z,92.90
2019-03-29T07:28:57.170Z,92.30
2019-03-29T07:31:02.778Z,92.80
2019-03-29T07:33:08.309Z,92.50
2019-03-29T07:35:13.899Z,92.00
2019-03-29T07:37:19.452Z,91.80
2019-03-29T07:39:24.980Z,91.50
2019-03-29T07:41:32.100Z,91.80
2019-03-29T07:43:37.671Z,91.70
2019-03-29T07:45:43.203Z,91.50
2019-03-29T07:47:48.744Z,91.40
2019-03-29T07:49:54.280Z,91.30
2019-03-29T07:51:59.807Z,91.30
2019-03-29T07:54:05.406Z,90.50
2019-03-29T07:56:10.943Z,90.40
2019-03-29T07:58:16.544Z,90.30
2019-03-29T08:00:22.065Z,88.10
2019-03-29T08:02:28.947Z,88.20
2019-03-29T08:04:34.642Z,88.40
2019-03-29T08:06:40.163Z,87.60
2019-03-29T08:08:45.700Z,89.70
2019-03-29T08:10:53.804Z,87.50
2019-03-29T08:12:58.375Z,87.80
2019-03-29T08:15:09.386Z,83.70
2019-03-29T08:17:14.740Z,81.70
2019-03-29T08:19:20.420Z,80.30
2019-03-29T08:21:25.961Z,79.00
2019-03-29T08:23:31.510Z,81.30
2019-03-29T08:25:37.068Z,78.00
2019-03-29T08:27:42.688Z,75.60
2019-03-29T08:29:48.183Z,77.80
2019-03-29T08:31:55.587Z,77.40
2019-03-29T08:34:00.879Z,77.50
2019-03-29T08:36:06.490Z,78.20
2019-03-29T08:38:12.020Z,77.50
2019-03-29T08:40:17.565Z,75.50
2019-03-29T08:42:23.124Z,75.60
2019-03-29T08:44:28.674Z,74.20
2019-03-29T08:46:34.225Z,73.10
2019-03-29T08:48:59.169Z,72.40
2019-03-29T08:51:04.785Z,72.80
2019-03-29T08:53:10.333Z,69.50
2019-03-29T08:55:17.681Z,69.30
2019-03-29T08:57:23.163Z,70.40
2019-03-29T08:59:28.690Z,70.60
2019-03-29T09:01:34.534Z,67.30
2019-03-29T09:03:40.056Z,69.90
2019-03-29T09:05:45.795Z,69.10
2019-03-29T09:07:51.720Z,68.50
2019-03-29T09:09:57.320Z,69.40
2019-03-29T09:12:13.785Z,66.80
2019-03-29T09:14:10.153Z,65.30
2019-03-29T09:16:15.679Z,62.20
2019-03-29T09:18:21.275Z,64.20
2019-03-29T09:20:26.871Z,66.10
2019-03-29T09:22:32.456Z,67.90
2019-03-29T09:24:37.999Z,66.50
2019-03-29T09:26:43.552Z,61.60
2019-03-29T09:28:49.077Z,60.20
2019-03-29T09:30:56.561Z,61.90
2019-03-29T09:33:01.748Z,61.00
2019-03-29T09:35:07.523Z,65.10
2019-03-29T09:37:13.050Z,62.90
2019-03-29T09:39:18.616Z,61.30
2019-03-29T09:41:24.215Z,64.60
2019-03-29T09:43:29.737Z,64.10
2019-03-29T09:45:35.332Z,64.80
2019-03-29T09:47:41.129Z,66.40
2019-03-29T09:49:46.864Z,66.90
2019-03-29T09:51:52.422Z,65.70
2019-03-29T09:53:58.102Z,67.80
2019-03-29T09:56:03.770Z,66.60
2019-03-29T09:58:09.303Z,66.20
2019-03-29T10:00:20.947Z,64.70
2019-03-29T10:02:23.574Z,63.60
2019-03-29T10:04:29.097Z,62.60
2019-03-29T10:06:35.602Z,63.10
2019-03-29T10:08:41.122Z,62.70
2019-03-29T10:10:46.820Z,64.60
2019-03-29T10:12:52.405Z,63.10
2019-03-29T10:14:58.002Z,63.40
2019-03-29T10:17:03.633Z,62.70
2019-03-29T10:19:09.220Z,65.20
2019-03-29T10:21:17.215Z,64.40
2019-03-29T10:23:21.907Z,64.70
2019-03-29T10:25:27.505Z,65.70
2019-03-29T10:27:33.037Z,65.40
2019-03-29T10:29:38.594Z,65.90
2019-03-29T10:31:45.201Z,65.00
2019-03-29T10:33:50.794Z,66.20
2019-03-29T10:35:56.407Z,64.70
2019-03-29T10:38:02.088Z,65.10
2019-03-29T10:40:07.992Z,65.20
2019-03-29T10:42:13.581Z,65.20
2019-03-29T10:44:19.104Z,64.90
2019-03-29T10:46:24.727Z,63.20
2019-03-29T10:48:30.426Z,61.30
2019-03-29T10:50:36.023Z,61.90
2019-03-29T10:52:41.546Z,63.60
2019-03-29T10:54:49.768Z,62.80
2019-03-29T10:56:54.306Z,63.40
2019-03-29T10:58:59.904Z,64.60
2019-03-29T11:01:05.795Z,64.40
2019-03-29T11:03:11.511Z,63.50
2019-03-29T11:05:20.164Z,64.20
2019-03-29T11:07:25.777Z,64.20
2019-03-29T11:09:31.418Z,63.90
2019-03-29T11:11:37.026Z,61.10
2019-03-29T11:13:42.721Z,64.00
2019-03-29T11:15:48.245Z,64.10
2019-03-29T11:17:53.773Z,64.00
2019-03-29T11:19:59.320Z,64.10
2019-03-29T11:22:04.926Z,63.60
2019-03-29T11:24:10.458Z,63.90
2019-03-29T11:26:16.008Z,64.80
2019-03-29T11:28:21.667Z,63.60
2019-03-29T11:30:41.159Z,63.30
2019-03-29T11:32:34.601Z,64.60
2019-03-29T11:34:40.144Z,64.80
2019-03-29T11:36:45.684Z,61.70
2019-03-29T11:38:51.221Z,62.30
2019-03-29T11:40:56.905Z,61.60
2019-03-29T11:43:02.449Z,60.90
2019-03-29T11:45:08.629Z,62.20
2019-03-29T11:47:14.165Z,63.00
2019-03-29T11:49:19.699Z,63.30
2019-03-29T11:51:25.255Z,61.90
2019-03-29T11:53:30.784Z,61.70
2019-03-29T11:55:36.386Z,63.00
2019-03-29T11:57:41.944Z,61.70
2019-03-29T11:59:47.609Z,62.80
2019-03-29T12:01:53.174Z,59.80
2019-03-29T12:03:58.716Z,59.90
2019-03-29T12:06:04.457Z,61.60
2019-03-29T12:08:10.215Z,60.90
2019-03-29T12:10:15.831Z,59.80
2019-03-29T12:12:21.432Z,59.30
2019-03-29T12:14:28.028Z,61.00
2019-03-29T12:16:33.637Z,59.80
2019-03-29T12:18:39.232Z,59.10
2019-03-29T12:20:44.914Z,62.40
2019-03-29T12:22:50.446Z,59.70
2019-03-29T12:24:55.979Z,61.00
2019-03-29T12:27:01.577Z,61.90
2019-03-29T12:29:07.130Z,59.40
2019-03-29T12:31:13.796Z,59.90
2019-03-29T12:33:19.549Z,59.40
2019-03-29T12:35:25.094Z,59.70
2019-03-29T12:37:30.620Z,58.40
2019-03-29T12:39:36.148Z,60.10
2019-03-29T12:41:43.372Z,59.90
2019-03-29T12:43:55.431Z,62.10
2019-03-29T12:45:56.033Z,58.00
2019-03-29T12:48:01.563Z,55.60
2019-03-29T12:50:08.085Z,55.60
2019-03-29T12:52:13.611Z,55.50
2019-03-29T12:54:20.294Z,54.20
2019-03-29T12:56:25.802Z,56.40
2019-03-29T12:58:31.329Z,56.40
2019-03-29T13:00:37.133Z,55.90
2019-03-29T13:02:42.714Z,56.70
2019-03-29T13:04:48.298Z,57.40
2019-03-29T13:06:53.836Z,58.90
2019-03-29T13:08:59.351Z,60.20
2019-03-29T13:11:04.957Z,59.90
2019-03-29T13:13:10.565Z,59.00
2019-03-29T13:15:16.073Z,58.70
2019-03-29T13:17:21.590Z,57.80
2019-03-29T13:19:27.504Z,58.50
2019-03-29T13:21:38.775Z,58.80
2019-03-29T13:23:43.129Z,61.50
2019-03-29T13:25:48.744Z,59.70
2019-03-29T13:27:58.968Z,58.80
2019-03-29T13:30:01.499Z,60.10
2019-03-29T13:32:07.376Z,60.90
2019-03-29T13:34:12.974Z,61.50
2019-03-29T13:36:18.676Z,61.80
2019-03-29T13:38:24.220Z,63.30
2019-03-29T13:40:29.848Z,61.40
2019-03-29T13:42:35.402Z,60.90
2019-03-29T13:44:40.965Z,60.60
2019-03-29T13:46:46.581Z,61.20
2019-03-29T13:48:52.122Z,63.00
2019-03-29T13:50:59.455Z,60.90
2019-03-29T13:53:05.825Z,58.10
2019-03-29T13:55:11.499Z,61.00
2019-03-29T13:57:17.040Z,61.50
2019-03-29T13:59:22.556Z,61.40
2019-03-29T14:01:28.097Z,62.00
2019-03-29T14:03:33.628Z,62.50
2019-03-29T14:05:39.167Z,62.60
2019-03-29T14:07:44.757Z,63.40
2019-03-29T14:09:50.292Z,63.70
2019-03-29T14:11:55.816Z,64.30
2019-03-29T14:14:01.343Z,65.20
2019-03-29T14:16:06.873Z,62.60
2019-03-29T14:18:12.475Z,64.00
2019-03-29T14:20:23.733Z,61.80
2019-03-29T14:22:29.274Z,62.40
2019-03-29T14:24:34.811Z,65.00
2019-03-29T14:26:40.368Z,64.30
2019-03-29T14:28:45.896Z,64.40
2019-03-29T14:30:51.421Z,65.60
2019-03-29T14:32:56.955Z,65.40
2019-03-29T14:35:02.542Z,66.60
2019-03-29T14:37:08.078Z,65.00
2019-03-29T14:39:13.613Z,65.10
2019-03-29T14:41:19.170Z,65.90
2019-03-29T14:43:24.698Z,64.90
2019-03-29T14:45:30.443Z,64.10
2019-03-29T14:47:43.197Z,65.30
2019-03-29T14:49:43.188Z,64.70
2019-03-29T14:51:48.708Z,65.00
2019-03-29T14:53:54.265Z,64.70
2019-03-29T14:55:59.861Z,65.00
2019-03-29T14:58:05.410Z,65.70
2019-03-29T15:00:12.668Z,64.80
2019-03-29T15:02:18.210Z,64.10
2019-03-29T15:04:23.754Z,65.60
2019-03-29T15:06:29.276Z,64.60
2019-03-29T15:08:34.803Z,64.50
2019-03-29T15:10:40.415Z,64.70
2019-03-29T15:12:45.956Z,64.90
2019-03-29T15:15:05.197Z,66.30
2019-03-29T15:16:58.627Z,66.00
2019-03-29T15:19:04.237Z,65.10
2019-03-29T15:21:10.551Z,65.90
2019-03-29T15:23:16.323Z,66.10
2019-03-29T15:25:21.932Z,65.30
2019-03-29T15:27:27.502Z,65.50
2019-03-29T15:29:33.018Z,65.50
2019-03-29T15:31:38.544Z,65.70
2019-03-29T15:33:44.076Z,65.40
2019-03-29T15:35:49.605Z,64.00
2019-03-29T15:37:55.138Z,65.30
2019-03-29T15:40:00.657Z,66.10
2019-03-29T15:42:06.261Z,65.60
2019-03-29T15:44:11.886Z,66.90
2019-03-29T15:46:17.416Z,66.80
2019-03-29T15:48:22.945Z,67.00
2019-03-29T15:50:28.629Z,66.50
2019-03-29T15:52:34.176Z,67.90
2019-03-29T15:54:39.723Z,67.20
2019-03-29T15:56:45.274Z,67.20
2019-03-29T15:58:50.814Z,67.20
2019-03-29T16:00:56.348Z,67.80
2019-03-29T16:03:01.957Z,68.80
2019-03-29T16:05:07.632Z,67.50
2019-03-29T16:07:13.245Z,68.00
2019-03-29T16:09:18.806Z,67.90
2019-03-29T16:11:24.413Z,67.70
2019-03-29T16:13:29.950Z,67.50
2019-03-29T16:15:38.343Z,67.60
2019-03-29T16:17:43.757Z,67.70
2019-03-29T16:19:49.292Z,68.60
2019-03-29T16:21:54.877Z,68.80
2019-03-29T16:24:00.412Z,68.70
2019-03-29T16:26:05.941Z,68.40
2019-03-29T16:28:11.486Z,68.50
2019-03-29T16:30:17.140Z,69.40
2019-03-29T16:32:22.689Z,69.60
2019-03-29T16:34:28.230Z,70.20
2019-03-29T16:36:33.832Z,69.40
2019-03-29T16:38:39.372Z,69.70
2019-03-29T16:40:44.902Z,70.10
2019-03-29T16:42:50.523Z,69.70
2019-03-29T16:44:56.133Z,69.50
2019-03-29T16:47:01.684Z,69.70
2019-03-29T16:49:07.204Z,70.00
2019-03-29T16:51:12.803Z,70.30
2019-03-29T16:53:18.441Z,71.30
2019-03-29T16:55:23.985Z,71.20
2019-03-29T16:57:29.580Z,71.50
2019-03-29T16:59:35.151Z,71.50
2019-03-29T17:01:40.696Z,72.10
2019-03-29T17:03:46.312Z,72.10
2019-03-29T17:05:51.876Z,72.70
2019-03-29T17:07:57.409Z,72.70
2019-03-29T17:10:03.989Z,72.80
2019-03-29T17:12:09.517Z,72.50
2019-03-29T17:14:15.031Z,72.90
2019-03-29T17:16:30.377Z,73.60
2019-03-29T17:18:29.522Z,74.00
2019-03-29T17:20:35.340Z,74.30
2019-03-29T17:22:43.206Z,75.10
2019-03-29T17:24:56.778Z,75.10
2019-03-29T17:26:55.353Z,75.30
2019-03-29T17:29:00.869Z,75.50
2019-03-29T17:31:08.077Z,76.20
2019-03-29T17:33:13.724Z,76.20
2019-03-29T17:35:19.240Z,76.50
2019-03-29T17:37:24.872Z,76.80
2019-03-29T17:39:30.422Z,77.20
2019-03-29T17:41:35.949Z,77.70
2019-03-29T17:43:41.567Z,77.70
2019-03-29T17:45:47.268Z,78.00
2019-03-29T17:47:52.808Z,78.10
2019-03-29T17:49:58.346Z,78.20
2019-03-29T17:52:03.940Z,78.70
2019-03-29T17:54:09.517Z,79.30
2019-03-29T17:56:15.036Z,79.30
2019-03-29T17:58:20.555Z,79.00
2019-03-29T18:00:27.835Z,79.30
2019-03-29T18:02:33.437Z,79.70
2019-03-29T18:04:38.968Z,80.00
2019-03-29T18:06:46.961Z,80.00
2019-03-29T18:08:51.668Z,80.30
2019-03-29T18:10:57.212Z,80.10
2019-03-29T18:13:02.822Z,80.00
2019-03-29T18:15:09.705Z,80.20
2019-03-29T18:17:15.227Z,80.00
2019-03-29T18:19:20.810Z,80.30
2019-03-29T18:21:26.348Z,80.70
2019-03-29T18:23:32.025Z,80.80
2019-03-29T18:25:37.653Z,80.70
2019-03-29T18:27:43.181Z,80.80
2019-03-29T18:29:48.714Z,81.90
2019-03-29T18:31:54.427Z,81.50
2019-03-29T18:34:00.368Z,81.80
2019-03-29T18:36:06.041Z,81.90
2019-03-29T18:38:11.747Z,81.90
2019-03-29T18:40:27.340Z,82.10
2019-03-29T18:42:32.869Z,82.50
2019-03-29T18:44:38.418Z,82.60
2019-03-29T18:46:45.105Z,82.60
2019-03-29T18:48:50.864Z,82.50
2019-03-29T18:50:56.454Z,82.70
2019-03-29T18:53:02.122Z,82.60
2019-03-29T18:55:07.728Z,82.70
2019-03-29T18:57:13.288Z,82.60
2019-03-29T18:59:18.823Z,82.70
2019-03-29T19:01:24.493Z,83.30
2019-03-29T19:03:30.104Z,83.30
2019-03-29T19:05:35.700Z,83.10
2019-03-29T19:07:41.238Z,82.90
2019-03-29T19:09:47.154Z,83.10
2019-03-29T19:11:52.881Z,83.40
2019-03-29T19:13:58.472Z,83.60
2019-03-29T19:16:04.150Z,83.10
2019-03-29T19:18:09.683Z,83.60
2019-03-29T19:20:26.759Z,84.30
2019-03-29T19:22:22.655Z,84.30
2019-03-29T19:24:28.128Z,84.50
2019-03-29T19:26:33.658Z,84.50
2019-03-29T19:28:39.186Z,85.10
2019-03-29T19:30:44.870Z,85.40
2019-03-29T19:32:51.486Z,85.50
2019-03-29T19:34:57.025Z,85.80
2019-03-29T19:37:02.634Z,85.90
2019-03-29T19:39:08.257Z,86.00
2019-03-29T19:41:13.896Z,86.00
2019-03-29T19:43:19.517Z,86.00
2019-03-29T19:45:25.118Z,86.20
2019-03-29T19:47:30.683Z,86.80
2019-03-29T19:49:36.221Z,86.60
2019-03-29T19:51:41.765Z,86.80
2019-03-29T19:53:47.349Z,86.80
2019-03-29T19:55:52.939Z,86.80
2019-03-29T19:57:58.497Z,87.40
2019-03-29T20:00:12.673Z,87.60
2019-03-29T20:02:18.345Z,87.50
2019-03-29T20:04:23.880Z,87.70
2019-03-29T20:06:29.561Z,87.60
2019-03-29T20:08:35.048Z,87.30
2019-03-29T20:10:40.645Z,88.20
2019-03-29T20:12:46.198Z,88.60
2019-03-29T20:14:51.728Z,88.20
2019-03-29T20:16:57.270Z,88.40
2019-03-29T20:19:02.811Z,88.40
2019-03-29T20:21:08.342Z,88.50
2019-03-29T20:23:15.015Z,88.70
2019-03-29T20:25:20.560Z,88.80
2019-03-29T20:27:26.092Z,89.00
2019-03-29T20:29:31.664Z,89.30
2019-03-29T20:31:37.308Z,89.30
2019-03-29T20:33:42.842Z,89.60
2019-03-29T20:35:48.393Z,89.70
2019-03-29T20:37:54.111Z,89.90
2019-03-29T20:39:59.634Z,89.90
2019-03-29T20:42:05.224Z,89.90
2019-03-29T20:44:10.781Z,90.00
2019-03-29T20:46:16.308Z,90.00
2019-03-29T20:48:21.849Z,89.70
2019-03-29T20:50:27.415Z,90.00
2019-03-29T20:52:32.953Z,90.10
2019-03-29T20:54:38.504Z,90.20
2019-03-29T20:56:44.077Z,90.30
2019-03-29T20:58:49.613Z,90.30
2019-03-29T21:00:55.136Z,90.40
2019-03-29T21:03:00.779Z,90.40
2019-03-29T21:05:07.070Z,90.50
2019-03-29T21:07:12.675Z,90.60
2019-03-29T21:09:18.224Z,90.50
2019-03-29T21:11:23.824Z,90.50
2019-03-29T21:13:29.430Z,90.50
2019-03-29T21:15:35.028Z,90.80
2019-03-29T21:17:40.637Z,90.70
2019-03-29T21:19:46.176Z,90.30
2019-03-29T21:21:51.716Z,90.70
2019-03-29T21:23:57.708Z,90.80
2019-03-29T21:26:03.240Z,90.80
2019-03-29T21:28:08.787Z,90.60
2019-03-29T21:30:14.852Z,90.70
2019-03-29T21:32:20.373Z,91.10
2019-03-29T21:34:26.016Z,91.00
2019-03-29T21:36:31.558Z,91.00
2019-03-29T21:38:37.168Z,91.00
2019-03-29T21:40:42.833Z,91.20
2019-03-29T21:42:48.479Z,91.40
2019-03-29T21:44:54.014Z,91.30
2019-03-29T21:46:59.654Z,91.20
2019-03-29T21:49:05.505Z,91.20
2019-03-29T21:51:11.074Z,91.10
2019-03-29T21:53:16.692Z,91.10
2019-03-29T21:55:22.302Z,91.30
2019-03-29T21:57:27.906Z,91.30
2019-03-29T21:59:33.584Z,91.30
2019-03-29T22:01:40.365Z,91.30
2019-03-29T22:03:45.986Z,91.30
2019-03-29T22:05:51.554Z,91.40
2019-03-29T22:07:57.115Z,91.40
2019-03-29T22:10:03.055Z,91.60
2019-03-29T22:12:08.610Z,91.60
2019-03-29T22:14:14.160Z,91.60
2019-03-29T22:16:19.732Z,91.90
2019-03-29T22:18:37.393Z,91.70
2019-03-29T22:20:32.600Z,91.70
2019-03-29T22:22:38.434Z,91.70
2019-03-29T22:24:44.956Z,91.70
2019-03-29T22:26:50.582Z,91.70
2019-03-29T22:28:56.154Z,91.80
2019-03-29T22:31:01.786Z,91.80
2019-03-29T22:33:07.468Z,91.70
2019-03-29T22:35:13.351Z,91.70
2019-03-29T22:37:18.982Z,91.90
2019-03-29T22:39:24.626Z,92.00
2019-03-29T22:41:30.201Z,92.00
2019-03-29T22:43:35.744Z,91.90
2019-03-29T22:45:41.357Z,92.00
2019-03-29T22:47:47.188Z,92.10
2019-03-29T22:49:52.778Z,92.00
2019-03-29T22:51:58.320Z,92.00
2019-03-29T22:54:04.016Z,92.20
2019-03-29T22:56:09.627Z,92.30
2019-03-29T22:58:15.165Z,92.40
2019-03-29T23:00:28.145Z,92.50
2019-03-29T23:02:35.275Z,92.40
2019-03-29T23:04:40.877Z,92.30
2019-03-29T23:06:46.433Z,92.20
2019-03-29T23:08:51.980Z,92.20
2019-03-29T23:10:57.528Z,92.40
2019-03-29T23:13:04.752Z,92.40
2019-03-29T23:15:11.246Z,92.50
2019-03-29T23:17:16.848Z,92.50
2019-03-29T23:19:22.415Z,92.70
2019-03-29T23:21:27.953Z,92.80
2019-03-29T23:23:33.513Z,93.00
2019-03-29T23:25:39.138Z,93.00
2019-03-29T23:27:44.778Z,93.20
2019-03-29T23:29:50.321Z,93.90
2019-03-29T23:31:56.038Z,93.10
2019-03-29T23:34:01.650Z,92.90
2019-03-29T23:36:07.268Z,93.00
2019-03-29T23:38:12.969Z,92.90
2019-03-29T23:40:18.583Z,92.80
2019-03-29T23:42:24.182Z,92.80
2019-03-29T23:44:29.806Z,92.70
2019-03-29T23:46:35.499Z,93.00
2019-03-29T23:48:41.106Z,93.30
2019-03-29T23:50:47.213Z,93.20
2019-03-29T23:52:52.935Z,93.20
2019-03-29T23:54:58.528Z,93.10
2019-03-29T23:57:04.194Z,93.10
2019-03-29T23:59:09.806Z,93.00
